Flight Track Log - Related Links

Times and Time Zones

All times are in EDT time to prevent confusion due to time zone crossing. See the EGF4174 flight status page for this flight to view local times or setup timezone preferences in your user account.


Time Position Orientation Groundspeed Altitude Reporting Facility
EDT Latitude Longitude Course Direction KTS MPH feet Rate Location/Type
Sun 04:59:53 PM 43.1092 -76.0864 286° West 157 181 1,100  Level Boston Center
Sun 05:00:53 PM 43.1281 -76.0164 70° East 221 254 3,200 2,243 Climbing Boston Center
Sun 05:01:48 PM 43.1747 -76.0506 332° Northwest 237 273 5,400 1,852 Climbing Boston Center
Sun 05:02:00 PM 43.1943 -76.4443 324° Northwest  Level FlightAware Approximate
Sun 05:03:00 PM 43.2094 -76.5660 281° West  Level FlightAware Approximate
Sun 05:03:22 PM 43.1769 -76.1842 271° West 242 278 7,800  Level Cleveland Center
Sun 05:04:00 PM 43.2322 -76.6889 286° West  Level FlightAware Approximate
Sun 05:04:22 PM 43.1789 -76.2922 271° West 264 304 10,200  Level Cleveland Center
Sun 05:05:00 PM 43.2583 -76.8109 286° West  Level FlightAware Approximate
Sun 05:05:22 PM 43.1936 -76.4081 280° West 291 335 11,400  Level Cleveland Center
Sun 05:06:22 PM 43.2125 -76.5294 282° West 319 367 12,900 1,500 Climbing Cleveland Center
Sun 05:07:22 PM 43.2358 -76.6589 284° West 337 388 14,400 1,400 Climbing Cleveland Center
Sun 05:08:22 PM 43.2586 -76.7858 284° West 342 394 15,700 1,350 Climbing Cleveland Center
Sun 05:09:22 PM 43.2797 -76.9214 282° West 356 410 17,100 1,350 Climbing Cleveland Center
Sun 05:10:22 PM 43.3006 -77.0544 282° West 361 415 18,400 1,412 Climbing Cleveland Center
Sun 05:11:21 PM 43.3047 -77.1939 272° West 361 415 19,900 1,350 Climbing Cleveland Center
Sun 05:12:22 PM 43.2856 -77.3292 259° West 366 421 21,100 1,240 Climbing Cleveland Center
Sun 05:13:22 PM 43.2644 -77.4700 258° West 371 427 22,400 1,200 Climbing Cleveland Center
Sun 05:14:22 PM 43.2453 -77.6078 259° West 371 427 23,500 1,150 Climbing Cleveland Center
Sun 05:15:22 PM 43.2281 -77.7511 261° West 376 433 24,700 1,200 Climbing Cleveland Center
Sun 05:16:22 PM 43.2103 -77.8858 260° West 376 433 25,900 1,200 Climbing Cleveland Center
Sun 05:17:22 PM 43.1906 -78.0233 259° West 376 433 27,100 1,200 Climbing Cleveland Center
Sun 05:18:22 PM 43.1706 -78.1608 259° West 376 433 28,300 1,150 Climbing Cleveland Center
Sun 05:19:22 PM 43.1525 -78.2925 259° West 370 426 29,400 1,050 Climbing Cleveland Center
Sun 05:20:22 PM 43.1406 -78.4294 263° West 370 426 30,400 1,000 Climbing Cleveland Center
Sun 05:21:22 PM 43.1367 -78.5661 268° West 370 426 31,400 1,000 Climbing Cleveland Center
Sun 05:22:22 PM 43.1328 -78.7086 268° West 370 426 32,400 1,150 Climbing Cleveland Center
Sun 05:23:22 PM 43.1286 -78.8481 268° West 370 426 33,700 800 Climbing Cleveland Center
Sun 05:24:22 PM 43.1078 -78.9822 258° West 370 426 34,000 623 Climbing Cleveland Center
Sun 05:25:08 PM 43.0833 -79.0833 252° West 370 426 34,800 1,019 Climbing Toronto Center
Sun 05:26:08 PM 43.0500 -79.2000 249° West 360 414 35,800 600 Climbing Toronto Center
Sun 05:27:08 PM 43.0333 -79.3667 262° West 360 414 36,000 100 Climbing Toronto Center
Sun 05:28:08 PM 43.0333 -79.5000 270° West 390 449 36,000  Level Toronto Center
Sun 05:29:08 PM 43.0333 -79.6500 270° West 400 460 36,000  Level Toronto Center
Sun 05:30:08 PM 43.0333 -79.8167 270° West 420 483 36,000  Level Toronto Center
Sun 05:31:08 PM 43.0333 -79.9833 270° West 420 483 36,000  Level Toronto Center
Sun 05:33:08 PM 43.0333 -80.2667 270° West 410 472 36,000  Level Toronto Center
Sun 05:34:08 PM 43.0333 -80.4333 270° West 410 472 36,000  Level Toronto Center
Sun 05:35:08 PM 43.0333 -80.5833 270° West 420 483 36,000  Level Toronto Center
Sun 05:36:08 PM 43.0333 -80.7500 270° West 420 483 36,000  Level Toronto Center
Sun 05:37:08 PM 43.0167 -80.9167 262° West 420 483 36,000  Level Toronto Center
Sun 05:38:08 PM 43.0167 -81.0667 270° West 410 472 36,000  Level Toronto Center
Sun 05:39:08 PM 43.0167 -81.2333 270° West 410 472 36,000  Level Toronto Center
Sun 05:40:08 PM 43.0167 -81.3833 270° West 410 472 36,000  Level Toronto Center
Sun 05:41:08 PM 43.0167 -81.5333 270° West 410 472 36,000  Level Toronto Center
Sun 05:42:08 PM 43.0167 -81.6833 270° West 410 472 36,000  Level Toronto Center
Sun 05:43:08 PM 43.0167 -81.8667 270° West 420 483 36,000  Level Toronto Center
Sun 05:44:08 PM 43.0000 -82.0000 260° West 420 483 36,000  Level Toronto Center
Sun 05:45:08 PM 43.0000 -82.1833 270° West 420 483 36,000  Level Toronto Center
Sun 05:46:08 PM 43.0000 -82.3167 270° West 420 483 36,000  Level Toronto Center
Sun 05:47:08 PM 43.0000 -82.5000 270° West 420 483 36,000  Level Toronto Center
Sun 05:48:08 PM 42.9833 -82.6667 262° West 420 483 36,000  Level Toronto Center
Sun 05:49:08 PM 42.9833 -82.8000 270° West 420 483 36,000  Level Toronto Center
Sun 05:49:58 PM 42.9903 -82.9447 274° West 422 486 36,000  Level Cleveland Center
Sun 05:50:58 PM 42.9869 -83.1064 268° West 422 486 36,000  Level Cleveland Center
Sun 05:51:58 PM 42.9814 -83.2650 267° West 422 486 36,000  Level Cleveland Center
Sun 05:52:58 PM 42.9775 -83.4267 268° West 422 486 36,000  Level Cleveland Center
Sun 05:53:58 PM 42.9711 -83.5911 267° West 422 486 36,000  Level Cleveland Center
Sun 05:54:58 PM 42.9647 -83.7525 267° West 422 486 36,000 -200 Level Cleveland Center
Sun 05:55:58 PM 42.9497 -83.9133 263° West 422 486 35,600 -950 Descending Cleveland Center
Sun 05:56:58 PM 42.9344 -84.0800 263° West 429 494 34,100 -1,500 Descending Cleveland Center
Sun 05:57:58 PM 42.9169 -84.2433 262° West 434 499 32,600 -906 Descending Cleveland Center
Sun 05:59:17 PM 42.8950 -84.4753 263° West 442 509 32,000 -255 Descending Chicago Center
Sun 06:00:19 PM 42.8783 -84.6428 262° West 448 516 32,000  Level Chicago Center
Sun 06:01:21 PM 42.8603 -84.8108 262° West 449 517 32,000  Level Chicago Center
Sun 06:02:23 PM 42.8433 -84.9742 262° West 440 506 32,000  Level Chicago Center
Sun 06:03:26 PM 42.8258 -85.1375 262° West 437 503 32,000 -194 Level Chicago Center
Sun 06:04:27 PM 42.8081 -85.3003 262° West 434 499 31,600 -1,366 Descending Chicago Center
Sun 06:05:29 PM 42.7900 -85.4642 262° West 437 503 29,200 -2,544 Descending Chicago Center
Sun 06:06:32 PM 42.7586 -85.6556 257° West 430 495 26,300 -2,544 Descending Chicago Center
Sun 06:07:34 PM 42.7300 -85.8097 256° West 422 486 23,900 -2,129 Descending Chicago Center
Sun 06:08:36 PM 42.7028 -85.9606 256° West 413 475 21,900 -1,645 Descending Chicago Center
Sun 06:09:38 PM 42.6767 -86.1044 256° West 398 458 20,500 -919 Descending Chicago Center
Sun 06:10:40 PM 42.6500 -86.2472 256° West 391 450 20,000 -242 Descending Chicago Center
Sun 06:11:42 PM 42.6239 -86.3864 256° West 382 440 20,000 -532 Level Chicago Center
Sun 06:12:44 PM 42.5967 -86.5272 255° West 384 442 18,900 -2,177 Descending Chicago Center
Sun 06:13:46 PM 42.5664 -86.6947 256° West 382 440 15,500 -2,758 Descending Chicago Center
Sun 06:14:48 PM 42.5358 -86.8219 252° West 360 414 13,200 -2,081 Descending Chicago Center
Sun 06:15:50 PM 42.5017 -86.9425 249° West 347 399 11,200 -1,548 Descending Chicago Center
Sun 06:16:52 PM 42.4686 -87.0603 249° West 338 389 10,000 -726 Descending Chicago Center
Sun 06:17:54 PM 42.4392 -87.1683 250° West 308 354 9,700 -484 Descending Chicago Center
Sun 06:18:56 PM 42.4058 -87.2614 244° Southwest 281 323 9,000 -629 Descending Chicago Center
Sun 06:19:58 PM 42.3606 -87.3739 241° Southwest 285 328 8,400 -768 Descending Chicago Center
Sun 06:21:01 PM 42.3242 -87.4672 242° Southwest 284 327 7,400 -672 Descending Chicago Center
Sun 06:22:03 PM 42.2875 -87.5622 242° Southwest 278 320 7,000 -242 Descending Chicago Center
Sun 06:23:05 PM 42.2392 -87.6317 227° Southwest 268 308 6,900 -774 Descending Chicago Center
Sun 06:24:07 PM 42.1789 -87.6944 218° Southwest 275 316 5,400 -1,403 Descending Chicago Center
Sun 06:25:09 PM 42.1275 -87.7547 221° Southwest 255 293 4,000 -1,355 Descending Chicago Center

Login

Don't have an account? Register now (free) for customized features, flight alerts, and more!